createdAt,value
2018-10-21T00:00:35.990Z,6.65
2018-10-21T00:01:35.996Z,6.71
2018-10-21T00:02:36.000Z,6.69
2018-10-21T00:03:35.963Z,6.68
2018-10-21T00:04:35.945Z,6.58
2018-10-21T00:05:35.939Z,6.65
2018-10-21T00:06:35.946Z,6.55
2018-10-21T00:07:35.948Z,6.68
2018-10-21T00:08:35.903Z,6.72
2018-10-21T00:09:35.893Z,6.57
2018-10-21T00:10:35.881Z,6.57
2018-10-21T00:11:35.867Z,6.58
2018-10-21T00:12:35.858Z,6.55
2018-10-21T00:13:35.915Z,6.60
2018-10-21T00:14:35.845Z,6.63
2018-10-21T00:15:35.980Z,6.55
2018-10-21T00:16:35.811Z,6.63
2018-10-21T00:17:35.815Z,6.51
2018-10-21T00:18:35.794Z,6.53
2018-10-21T00:19:35.820Z,6.55
2018-10-21T00:20:35.730Z,6.55
2018-10-21T00:21:35.766Z,6.45
2018-10-21T00:22:35.742Z,6.45
2018-10-21T00:23:35.736Z,6.48
2018-10-21T00:24:35.750Z,6.40
2018-10-21T00:25:35.717Z,6.48
2018-10-21T00:26:35.704Z,6.53
2018-10-21T00:27:35.701Z,6.50
2018-10-21T00:28:35.680Z,6.42
2018-10-21T00:29:35.670Z,6.54
2018-10-21T00:30:35.688Z,6.50
2018-10-21T00:31:35.648Z,6.54
2018-10-21T00:32:35.635Z,6.60
2018-10-21T00:33:35.636Z,6.54
2018-10-21T00:34:35.614Z,6.58
2018-10-21T00:35:35.610Z,6.51
2018-10-21T00:36:35.642Z,6.55
2018-10-21T00:37:35.588Z,6.45
2018-10-21T00:38:35.572Z,6.25
2018-10-21T00:39:35.562Z,6.42
2018-10-21T00:40:35.520Z,6.46
2018-10-21T00:41:35.540Z,6.36
2018-10-21T00:42:35.556Z,6.45
2018-10-21T00:43:35.525Z,6.48
2018-10-21T00:44:35.472Z,6.48
2018-10-21T00:45:35.520Z,6.48
2018-10-21T00:46:35.549Z,6.46
2018-10-21T00:47:35.473Z,6.53
2018-10-21T00:48:35.564Z,6.58
2018-10-21T00:49:35.444Z,6.54
2018-10-21T00:50:35.492Z,6.46
2018-10-21T00:51:35.428Z,6.40
2018-10-21T00:52:35.373Z,6.36
2018-10-21T00:53:35.402Z,6.38
2018-10-21T00:54:35.591Z,6.35
2018-10-21T00:55:35.387Z,6.25
2018-10-21T00:56:35.435Z,6.30
2018-10-21T00:57:35.365Z,6.40
2018-10-21T00:58:35.307Z,6.24
2018-10-21T00:59:35.338Z,6.27
2018-10-21T01:00:35.373Z,6.28
2018-10-21T01:01:35.277Z,6.21
2018-10-21T01:02:35.309Z,6.20
2018-10-21T01:03:35.313Z,6.11
2018-10-21T01:04:35.284Z,6.11
2018-10-21T01:05:35.273Z,6.08
2018-10-21T01:06:35.348Z,6.01
2018-10-21T01:07:35.268Z,6.10
2018-10-21T01:08:35.248Z,6.03
2018-10-21T01:09:35.235Z,6.05
2018-10-21T01:10:35.230Z,6.01
2018-10-21T01:11:35.207Z,6.01
2018-10-21T01:12:35.230Z,6.05
2018-10-21T01:13:35.217Z,6.06
2018-10-21T01:14:35.178Z,6.03
2018-10-21T01:15:35.166Z,6.06
2018-10-21T01:16:35.345Z,6.02
2018-10-21T01:17:35.147Z,6.06
2018-10-21T01:18:35.095Z,6.16
2018-10-21T01:19:35.118Z,6.14
2018-10-21T01:20:35.095Z,6.21
2018-10-21T01:21:35.099Z,6.28
2018-10-21T01:22:35.099Z,6.10
2018-10-21T01:23:35.084Z,6.17
2018-10-21T01:24:35.068Z,6.13
2018-10-21T01:25:35.055Z,6.27
2018-10-21T01:26:35.074Z,6.14
2018-10-21T01:27:35.033Z,6.28
2018-10-21T01:28:35.031Z,6.30
2018-10-21T01:29:34.975Z,6.24
2018-10-21T01:30:35.015Z,6.14
2018-10-21T01:31:34.995Z,6.10
2018-10-21T01:32:35.016Z,6.17
2018-10-21T01:33:34.920Z,6.16
2018-10-21T01:34:34.975Z,6.11
2018-10-21T01:35:34.946Z,6.13
2018-10-21T01:36:35.050Z,6.19
2018-10-21T01:37:34.949Z,6.16
2018-10-21T01:38:34.954Z,6.06
2018-10-21T01:39:34.923Z,6.05
2018-10-21T01:40:34.894Z,6.02
2018-10-21T01:41:34.883Z,6.06
2018-10-21T01:42:34.880Z,5.98
2018-10-21T01:43:34.870Z,6.05
2018-10-21T01:44:34.882Z,6.01
2018-10-21T01:45:34.933Z,6.10
2018-10-21T01:46:34.832Z,6.01
2018-10-21T01:47:34.819Z,5.96
2018-10-21T01:48:35.042Z,5.92
2018-10-21T01:49:34.810Z,5.95
2018-10-21T01:50:34.782Z,5.87
2018-10-21T01:51:34.771Z,5.88
2018-10-21T01:52:34.765Z,5.95
2018-10-21T01:53:34.829Z,5.88
2018-10-21T01:54:34.787Z,5.93
2018-10-21T01:55:34.774Z,5.90
2018-10-21T01:56:34.719Z,5.95
2018-10-21T01:57:34.707Z,5.84
2018-10-21T01:58:34.704Z,5.90
2018-10-21T01:59:34.712Z,5.81
2018-10-21T02:00:34.716Z,5.83
2018-10-21T02:01:34.670Z,5.80
2018-10-21T02:02:34.612Z,5.84
2018-10-21T02:03:34.639Z,5.81
2018-10-21T02:04:34.642Z,5.87
2018-10-21T02:05:34.614Z,5.83
2018-10-21T02:06:34.744Z,5.78
2018-10-21T02:07:34.597Z,5.83
2018-10-21T02:08:34.602Z,5.77
2018-10-21T02:09:34.584Z,5.83
2018-10-21T02:10:34.527Z,5.81
2018-10-21T02:11:34.568Z,5.92
2018-10-21T02:12:34.636Z,5.84
2018-10-21T02:13:34.533Z,6.01
2018-10-21T02:14:34.521Z,5.93
2018-10-21T02:15:34.520Z,5.95
2018-10-21T02:16:34.504Z,5.90
2018-10-21T02:17:34.511Z,6.03
2018-10-21T02:18:34.614Z,5.96
2018-10-21T02:19:34.467Z,5.96
2018-10-21T02:20:34.469Z,5.93
2018-10-21T02:21:34.447Z,5.95
2018-10-21T02:22:34.441Z,6.01
2018-10-21T02:23:34.425Z,6.02
2018-10-21T02:24:34.447Z,5.95
2018-10-21T02:25:34.409Z,5.92
2018-10-21T02:26:34.400Z,5.90
2018-10-21T02:27:34.379Z,5.98
2018-10-21T02:28:34.371Z,5.83
2018-10-21T02:29:34.358Z,5.84
2018-10-21T02:30:34.384Z,5.84
2018-10-21T02:31:34.371Z,5.87
2018-10-21T02:32:34.291Z,5.84
2018-10-21T02:33:34.457Z,5.85
2018-10-21T02:34:34.320Z,5.92
2018-10-21T02:35:34.301Z,5.90
2018-10-21T02:36:34.270Z,5.92
2018-10-21T02:37:34.271Z,5.84
2018-10-21T02:38:34.220Z,5.83
2018-10-21T02:39:34.255Z,5.84
2018-10-21T02:40:34.255Z,5.75
2018-10-21T02:41:34.217Z,5.75
2018-10-21T02:42:34.329Z,5.70
2018-10-21T02:43:34.166Z,5.77
2018-10-21T02:44:34.195Z,5.67
2018-10-21T02:45:34.191Z,5.69
2018-10-21T02:46:34.335Z,5.75
2018-10-21T02:47:34.158Z,5.58
2018-10-21T02:48:34.224Z,5.65
2018-10-21T02:49:34.150Z,5.73
2018-10-21T02:50:34.134Z,5.62
2018-10-21T02:51:34.082Z,5.59
2018-10-21T02:52:34.091Z,5.58
2018-10-21T02:53:34.105Z,5.56
2018-10-21T02:54:34.085Z,5.44
2018-10-21T02:55:34.078Z,5.52
2018-10-21T02:56:34.135Z,5.49
2018-10-21T02:57:34.019Z,5.51
2018-10-21T02:58:34.043Z,5.49
2018-10-21T02:59:34.043Z,5.56
2018-10-21T03:00:34.021Z,5.62
2018-10-21T03:01:34.017Z,5.66
2018-10-21T03:02:34.046Z,5.62
2018-10-21T03:03:33.998Z,5.62
2018-10-21T03:04:34.011Z,5.60
2018-10-21T03:05:33.979Z,5.58
2018-10-21T03:06:33.956Z,5.56
2018-10-21T03:07:33.982Z,5.51
2018-10-21T03:08:33.931Z,5.55
2018-10-21T03:09:33.927Z,5.56
2018-10-21T03:10:33.872Z,5.56
2018-10-21T03:11:33.908Z,5.59
2018-10-21T03:12:33.850Z,5.59
2018-10-21T03:13:33.944Z,5.56
2018-10-21T03:14:33.873Z,5.55
2018-10-21T03:15:33.854Z,5.56
2018-10-21T03:16:33.847Z,5.55
2018-10-21T03:17:33.841Z,5.47
2018-10-21T03:18:33.825Z,5.47
2018-10-21T03:19:33.838Z,5.49
2018-10-21T03:20:41.297Z,5.49
2018-10-21T03:21:33.807Z,5.55
2018-10-21T03:22:33.854Z,5.48
2018-10-21T03:23:33.778Z,5.35
2018-10-21T03:24:34.263Z,5.38
2018-10-21T03:25:33.708Z,5.48
2018-10-21T03:26:33.768Z,5.44
2018-10-21T03:27:33.733Z,5.44
2018-10-21T03:28:33.986Z,5.41
2018-10-21T03:29:33.730Z,5.49
2018-10-21T03:30:33.698Z,5.38
2018-10-21T03:31:33.698Z,5.48
2018-10-21T03:32:33.684Z,5.45
2018-10-21T03:33:33.761Z,5.41
2018-10-21T03:34:33.707Z,5.42
2018-10-21T03:35:33.681Z,5.42
2018-10-21T03:36:33.642Z,5.41
2018-10-21T03:37:33.650Z,5.45
2018-10-21T03:38:33.633Z,5.37
2018-10-21T03:39:33.694Z,5.48
2018-10-21T03:40:33.623Z,5.42
2018-10-21T03:41:33.541Z,5.47
2018-10-21T03:42:33.608Z,5.52
2018-10-21T03:43:33.630Z,5.48
2018-10-21T03:44:33.553Z,5.41
2018-10-21T03:45:33.705Z,5.40
2018-10-21T03:46:33.532Z,5.41
2018-10-21T03:47:33.515Z,5.45
2018-10-21T03:48:33.544Z,5.38
2018-10-21T03:49:33.514Z,5.48
2018-10-21T03:50:33.479Z,5.51
2018-10-21T03:51:33.524Z,5.44
2018-10-21T03:52:33.518Z,5.41
2018-10-21T03:53:33.446Z,5.38
2018-10-21T03:54:33.571Z,5.45
2018-10-21T03:55:33.472Z,5.49
2018-10-21T03:56:33.437Z,5.42
2018-10-21T03:57:33.440Z,5.49
2018-10-21T03:58:33.401Z,5.41
2018-10-21T03:59:33.416Z,5.41
2018-10-21T04:00:33.411Z,5.41
2018-10-21T04:01:33.369Z,5.37
2018-10-21T04:02:33.360Z,5.37
2018-10-21T04:03:33.344Z,5.41
2018-10-21T04:04:33.335Z,5.38
2018-10-21T04:05:33.438Z,5.26
2018-10-21T04:06:33.337Z,5.24
2018-10-21T04:07:33.299Z,5.27
2018-10-21T04:08:33.286Z,5.27
2018-10-21T04:09:33.234Z,5.23
2018-10-21T04:10:33.287Z,5.27
2018-10-21T04:11:33.262Z,5.23
2018-10-21T04:12:33.329Z,5.30
2018-10-21T04:13:33.234Z,5.12
2018-10-21T04:14:33.221Z,5.19
2018-10-21T04:15:33.282Z,5.15
2018-10-21T04:16:33.208Z,5.22
2018-10-21T04:17:33.213Z,5.17
2018-10-21T04:18:33.154Z,5.27
2018-10-21T04:19:33.161Z,5.23
2018-10-21T04:20:33.267Z,5.14
2018-10-21T04:21:33.180Z,5.14
2018-10-21T04:22:33.132Z,5.35
2018-10-21T04:23:33.128Z,5.23
2018-10-21T04:24:33.123Z,5.20
2018-10-21T04:25:33.157Z,5.17
2018-10-21T04:26:33.095Z,5.19
2018-10-21T04:27:33.093Z,5.24
2018-10-21T04:28:33.068Z,5.27
2018-10-21T04:29:33.077Z,5.19
2018-10-21T04:30:33.078Z,5.29
2018-10-21T04:31:33.036Z,5.17
2018-10-21T04:32:33.034Z,5.15
2018-10-21T04:33:33.013Z,5.11
2018-10-21T04:34:33.017Z,5.20
2018-10-21T04:35:33.133Z,5.17
2018-10-21T04:36:33.007Z,5.19
2018-10-21T04:37:32.930Z,5.17
2018-10-21T04:38:32.983Z,5.04
2018-10-21T04:39:32.952Z,5.09
2018-10-21T04:40:33.007Z,5.06
2018-10-21T04:41:32.924Z,5.06
2018-10-21T04:42:32.927Z,5.14
2018-10-21T04:43:32.912Z,5.08
2018-10-21T04:44:32.958Z,5.06
2018-10-21T04:45:32.983Z,5.05
2018-10-21T04:46:32.952Z,5.05
2018-10-21T04:47:32.863Z,5.08
2018-10-21T04:48:32.915Z,5.05
2018-10-21T04:49:32.844Z,5.05
2018-10-21T04:50:32.838Z,5.06
2018-10-21T04:51:32.882Z,5.06
2018-10-21T04:52:32.818Z,4.97
2018-10-21T04:53:32.800Z,5.04
2018-10-21T04:54:32.801Z,5.04
2018-10-21T04:55:32.771Z,4.99
2018-10-21T04:56:32.803Z,4.99
2018-10-21T04:57:32.767Z,4.94
2018-10-21T04:58:32.758Z,4.94
2018-10-21T04:59:32.749Z,4.91
2018-10-21T05:00:32.741Z,5.02
2018-10-21T05:01:32.726Z,4.88
2018-10-21T05:02:32.703Z,5.02
2018-10-21T05:03:32.682Z,5.04
2018-10-21T05:04:32.690Z,4.96
2018-10-21T05:05:32.691Z,5.02
2018-10-21T05:06:32.681Z,5.09
2018-10-21T05:07:32.721Z,5.02
2018-10-21T05:08:32.640Z,5.11
2018-10-21T05:09:32.618Z,5.08
2018-10-21T05:10:32.563Z,4.99
2018-10-21T05:11:32.632Z,5.11
2018-10-21T05:12:32.541Z,5.11
2018-10-21T05:13:32.573Z,5.08
2018-10-21T05:14:32.567Z,5.05
2018-10-21T05:15:32.563Z,5.09
2018-10-21T05:16:32.664Z,5.05
2018-10-21T05:17:32.531Z,5.09
2018-10-21T05:18:32.490Z,5.17
2018-10-21T05:19:32.462Z,5.06
2018-10-21T05:20:32.545Z,4.94
2018-10-21T05:21:32.538Z,4.94
2018-10-21T05:22:32.487Z,4.94
2018-10-21T05:23:32.471Z,4.97
2018-10-21T05:24:32.466Z,4.93
2018-10-21T05:25:32.458Z,4.94
2018-10-21T05:26:32.465Z,5.02
2018-10-21T05:27:32.436Z,4.94
2018-10-21T05:28:32.412Z,4.97
2018-10-21T05:29:32.424Z,4.96
2018-10-21T05:30:32.398Z,5.04
2018-10-21T05:31:32.372Z,4.96
2018-10-21T05:32:32.386Z,5.04
2018-10-21T05:33:32.357Z,4.96
2018-10-21T05:34:32.353Z,4.87
2018-10-21T05:35:32.344Z,4.91
2018-10-21T05:36:32.390Z,4.93
2018-10-21T05:37:39.971Z,4.86
2018-10-21T05:38:32.296Z,4.88
2018-10-21T05:39:32.282Z,4.93
2018-10-21T05:40:32.331Z,4.91
2018-10-21T05:41:32.446Z,4.88
2018-10-21T05:42:32.263Z,4.97
2018-10-21T05:43:32.246Z,4.96
2018-10-21T05:44:32.247Z,4.93
2018-10-21T05:45:32.221Z,4.93
2018-10-21T05:46:32.254Z,4.88
2018-10-21T05:47:32.275Z,4.88
2018-10-21T05:48:32.192Z,4.99
2018-10-21T05:49:32.179Z,4.86
2018-10-21T05:50:32.169Z,4.88
2018-10-21T05:51:32.212Z,4.93
2018-10-21T05:52:32.151Z,4.93
2018-10-21T05:53:32.106Z,4.90
2018-10-21T05:54:32.128Z,4.93
2018-10-21T05:55:32.112Z,4.87
2018-10-21T05:56:32.128Z,4.84
2018-10-21T05:57:32.090Z,4.91
2018-10-21T05:58:32.103Z,4.86
2018-10-21T05:59:32.025Z,4.93
2018-10-21T06:00:32.052Z,4.88
2018-10-21T06:01:32.079Z,4.93
2018-10-21T06:02:31.994Z,4.93
2018-10-21T06:03:32.024Z,4.88
2018-10-21T06:04:32.021Z,4.96
2018-10-21T06:05:32.036Z,4.94
2018-10-21T06:06:32.020Z,4.96
2018-10-21T06:07:31.979Z,4.93
2018-10-21T06:08:31.982Z,4.87
2018-10-21T06:09:31.963Z,4.87
2018-10-21T06:10:31.950Z,4.88
2018-10-21T06:11:31.941Z,4.93
2018-10-21T06:12:31.951Z,4.88
2018-10-21T06:13:31.919Z,4.93
2018-10-21T06:14:31.902Z,4.93
2018-10-21T06:15:31.892Z,4.88
2018-10-21T06:16:31.892Z,4.99
2018-10-21T06:17:31.899Z,5.04
2018-10-21T06:18:31.828Z,5.09
2018-10-21T06:19:31.850Z,5.09
2018-10-21T06:20:31.844Z,5.11
2018-10-21T06:21:31.831Z,5.11
2018-10-21T06:22:31.845Z,5.06
2018-10-21T06:23:31.773Z,5.15
2018-10-21T06:24:31.799Z,5.17
2018-10-21T06:25:31.792Z,5.12
2018-10-21T06:26:31.777Z,5.27
2018-10-21T06:27:31.863Z,5.30
2018-10-21T06:28:31.760Z,5.27
2018-10-21T06:29:31.738Z,5.32
2018-10-21T06:30:31.823Z,5.32
2018-10-21T06:31:31.673Z,5.30
2018-10-21T06:32:31.685Z,5.35
2018-10-21T06:33:31.752Z,5.38
2018-10-21T06:34:31.657Z,5.49
2018-10-21T06:35:31.676Z,5.45
2018-10-21T06:36:31.687Z,5.44
2018-10-21T06:37:31.686Z,5.48
2018-10-21T06:38:31.641Z,5.45
2018-10-21T06:39:31.657Z,5.56
2018-10-21T06:40:31.704Z,5.51
2018-10-21T06:41:31.613Z,5.59
2018-10-21T06:42:31.632Z,5.51
2018-10-21T06:43:31.587Z,5.62
2018-10-21T06:44:31.542Z,5.65
2018-10-21T06:45:31.601Z,5.60
2018-10-21T06:46:31.664Z,5.69
2018-10-21T06:47:31.575Z,5.75
2018-10-21T06:48:31.565Z,5.73
2018-10-21T06:49:31.526Z,5.73
2018-10-21T06:50:31.520Z,5.70
2018-10-21T06:51:31.507Z,5.69
2018-10-21T06:52:31.529Z,5.81
2018-10-21T06:53:31.458Z,5.84
2018-10-21T06:54:31.487Z,5.87
2018-10-21T06:55:31.462Z,5.84
2018-10-21T06:56:31.488Z,5.93
2018-10-21T06:57:31.550Z,5.98
2018-10-21T06:58:31.436Z,5.90
2018-10-21T06:59:31.411Z,5.96
2018-10-21T07:00:31.414Z,6.05
2018-10-21T07:01:31.391Z,6.01
2018-10-21T07:02:31.423Z,6.03
2018-10-21T07:03:31.382Z,6.14
2018-10-21T07:04:31.400Z,6.08
2018-10-21T07:05:31.347Z,6.10
2018-10-21T07:06:31.348Z,6.19
2018-10-21T07:07:31.360Z,6.25
2018-10-21T07:08:31.319Z,6.24
2018-10-21T07:09:31.321Z,6.28
2018-10-21T07:10:31.298Z,6.25
2018-10-21T07:11:31.279Z,6.40
2018-10-21T07:12:31.308Z,6.51
2018-10-21T07:13:31.260Z,6.50
2018-10-21T07:14:31.263Z,6.45
2018-10-21T07:15:31.253Z,6.43
2018-10-21T07:16:31.352Z,6.43
2018-10-21T07:17:31.244Z,6.58
2018-10-21T07:18:31.238Z,6.50
2018-10-21T07:19:31.197Z,6.55
2018-10-21T07:20:31.148Z,6.46
2018-10-21T07:21:31.177Z,6.54
2018-10-21T07:22:31.190Z,6.58
2018-10-21T07:23:31.158Z,6.48
2018-10-21T07:24:31.139Z,6.58
2018-10-21T07:25:31.142Z,6.69
2018-10-21T07:26:31.116Z,6.58
2018-10-21T07:27:31.123Z,6.58
2018-10-21T07:28:31.152Z,6.69
2018-10-21T07:29:31.084Z,6.63
2018-10-21T07:30:31.074Z,6.75
2018-10-21T07:31:31.070Z,6.75
2018-10-21T07:32:31.052Z,6.75
2018-10-21T07:33:31.171Z,6.78
2018-10-21T07:34:31.036Z,6.78
2018-10-21T07:35:31.023Z,6.76
2018-10-21T07:36:31.084Z,6.89
2018-10-21T07:37:30.954Z,6.90
2018-10-21T07:38:31.020Z,7.01
2018-10-21T07:39:30.933Z,7.00
2018-10-21T07:40:30.920Z,6.97
2018-10-21T07:41:30.984Z,6.94
2018-10-21T07:42:30.943Z,7.09
2018-10-21T07:43:31.076Z,7.07
2018-10-21T07:44:30.930Z,7.09
2018-10-21T07:45:30.905Z,7.09
2018-10-21T07:46:30.901Z,7.12
2018-10-21T07:47:30.887Z,7.05
2018-10-21T07:48:30.901Z,7.18
2018-10-21T07:49:30.927Z,7.12
2018-10-21T07:50:30.855Z,7.24
2018-10-21T07:51:30.853Z,7.19
2018-10-21T07:52:30.835Z,7.15
2018-10-21T07:53:30.855Z,7.30
2018-10-21T07:54:38.361Z,7.21
2018-10-21T07:55:30.809Z,7.32
2018-10-21T07:56:30.788Z,7.29
2018-10-21T07:57:30.778Z,7.26
2018-10-21T07:58:30.804Z,7.26
2018-10-21T07:59:30.755Z,7.44
2018-10-21T08:00:30.750Z,7.45
2018-10-21T08:01:30.743Z,7.42
2018-10-21T08:02:30.746Z,7.42
2018-10-21T08:03:30.743Z,7.51
2018-10-21T08:04:30.705Z,7.45
2018-10-21T08:05:30.694Z,7.58
2018-10-21T08:06:30.686Z,7.58
2018-10-21T08:07:30.716Z,7.57
2018-10-21T08:08:30.722Z,7.62
2018-10-21T08:09:30.666Z,7.63
2018-10-21T08:10:30.656Z,7.69
2018-10-21T08:11:30.673Z,7.73
2018-10-21T08:12:30.666Z,7.71
2018-10-21T08:13:30.634Z,7.73
2018-10-21T08:14:30.612Z,7.73
2018-10-21T08:15:30.619Z,7.81
2018-10-21T08:16:30.567Z,7.84
2018-10-21T08:17:30.561Z,7.86
2018-10-21T08:18:30.590Z,7.89
2018-10-21T08:19:30.555Z,7.89
2018-10-21T08:20:30.532Z,7.79
2018-10-21T08:21:30.558Z,7.86
2018-10-21T08:22:30.536Z,7.85
2018-10-21T08:23:30.543Z,7.94
2018-10-21T08:24:30.485Z,7.92
2018-10-21T08:25:30.484Z,7.94
2018-10-21T08:26:30.420Z,7.99
2018-10-21T08:27:30.461Z,8.00
2018-10-21T08:28:30.482Z,7.91
2018-10-21T08:29:30.433Z,8.03
2018-10-21T08:30:30.424Z,8.12
2018-10-21T08:31:30.414Z,8.09
2018-10-21T08:32:30.361Z,8.21
2018-10-21T08:33:30.425Z,8.22
2018-10-21T08:34:30.385Z,8.24
2018-10-21T08:35:30.379Z,8.22
2018-10-21T08:36:30.375Z,8.34
2018-10-21T08:37:30.353Z,8.37
2018-10-21T08:38:30.344Z,8.40
2018-10-21T08:39:30.347Z,8.40
2018-10-21T08:40:30.312Z,8.34
2018-10-21T08:41:30.308Z,8.45
2018-10-21T08:42:30.246Z,8.32
2018-10-21T08:43:30.286Z,8.50
2018-10-21T08:44:30.308Z,8.52
2018-10-21T08:45:30.261Z,8.50
2018-10-21T08:46:30.309Z,8.50
2018-10-21T08:47:30.248Z,8.55
2018-10-21T08:48:30.235Z,8.61
2018-10-21T08:49:30.259Z,8.68
2018-10-21T08:50:30.210Z,8.60
2018-10-21T08:51:30.216Z,8.61
2018-10-21T08:52:30.184Z,8.60
2018-10-21T08:53:30.126Z,8.71
2018-10-21T08:54:30.188Z,8.73
2018-10-21T08:55:30.147Z,8.76
2018-10-21T08:56:30.155Z,8.79
2018-10-21T08:57:30.133Z,8.82
2018-10-21T08:58:30.123Z,8.89
2018-10-21T08:59:30.178Z,8.94
2018-10-21T09:00:30.106Z,8.79
2018-10-21T09:01:30.093Z,8.79
2018-10-21T09:02:30.070Z,8.82
2018-10-21T09:03:30.073Z,8.96
2018-10-21T09:04:30.085Z,8.96
2018-10-21T09:05:30.051Z,8.96
2018-10-21T09:06:30.034Z,8.91
2018-10-21T09:07:30.058Z,9.00
2018-10-21T09:08:30.013Z,9.06
2018-10-21T09:09:30.039Z,9.08
2018-10-21T09:10:30.039Z,9.10
2018-10-21T09:11:29.991Z,9.20
2018-10-21T09:12:29.977Z,9.26
2018-10-21T09:13:29.959Z,9.27
2018-10-21T09:14:29.973Z,9.30
2018-10-21T09:15:29.958Z,9.23
2018-10-21T09:16:29.907Z,9.26
2018-10-21T09:17:29.929Z,9.37
2018-10-21T09:18:29.936Z,9.48
2018-10-21T09:19:29.922Z,9.52
2018-10-21T09:20:29.882Z,9.49
2018-10-21T09:21:29.867Z,9.52
2018-10-21T09:22:29.847Z,9.49
2018-10-21T09:23:29.844Z,9.53
2018-10-21T09:24:29.880Z,9.53
2018-10-21T09:25:29.784Z,9.55
2018-10-21T09:26:29.818Z,9.45
2018-10-21T09:27:29.803Z,9.58
2018-10-21T09:28:29.793Z,9.73
2018-10-21T09:29:29.790Z,9.65
2018-10-21T09:30:29.742Z,9.77
2018-10-21T09:31:29.752Z,9.78
2018-10-21T09:32:29.777Z,9.91
2018-10-21T09:33:29.846Z,9.93
2018-10-21T09:34:29.753Z,9.92
2018-10-21T09:35:29.673Z,9.93
2018-10-21T09:36:29.704Z,9.93
2018-10-21T09:37:29.660Z,10.07
2018-10-21T09:38:29.672Z,10.07
2018-10-21T09:39:29.781Z,10.10
2018-10-21T09:40:29.664Z,10.20
2018-10-21T09:41:29.663Z,10.25
2018-10-21T09:42:29.640Z,10.11
2018-10-21T09:43:29.625Z,10.18
2018-10-21T09:44:29.632Z,10.28
2018-10-21T09:45:29.558Z,10.34
2018-10-21T09:46:29.594Z,10.28
2018-10-21T09:47:29.574Z,10.34
2018-10-21T09:48:29.569Z,10.46
2018-10-21T09:49:29.516Z,10.43
2018-10-21T09:50:29.581Z,10.47
2018-10-21T09:51:29.526Z,10.49
2018-10-21T09:52:29.523Z,10.47
2018-10-21T09:53:29.514Z,10.63
2018-10-21T09:54:29.497Z,10.60
2018-10-21T09:55:29.535Z,10.65
2018-10-21T09:56:29.478Z,10.72
2018-10-21T09:57:29.468Z,10.70
2018-10-21T09:58:29.459Z,10.65
2018-10-21T09:59:29.445Z,10.84
2018-10-21T10:00:29.464Z,10.84
2018-10-21T10:01:29.423Z,10.83
2018-10-21T10:02:29.410Z,10.80
2018-10-21T10:03:29.358Z,10.90
2018-10-21T10:04:29.477Z,11.01
2018-10-21T10:05:29.410Z,10.98
2018-10-21T10:06:29.365Z,11.11
2018-10-21T10:07:29.358Z,11.08
2018-10-21T10:08:29.343Z,11.27
2018-10-21T10:09:29.287Z,11.24
2018-10-21T10:10:29.353Z,11.31
2018-10-21T10:11:29.310Z,11.36
2018-10-21T10:12:29.311Z,11.41
2018-10-21T10:13:29.293Z,11.48
2018-10-21T10:14:29.270Z,11.53
2018-10-21T10:15:29.298Z,11.56
2018-10-21T10:16:29.258Z,11.63
2018-10-21T10:17:29.288Z,11.59
2018-10-21T10:18:29.239Z,11.66
2018-10-21T10:19:29.217Z,11.74
2018-10-21T10:20:29.245Z,11.70
2018-10-21T10:21:29.197Z,11.63
2018-10-21T10:22:29.145Z,11.77
2018-10-21T10:23:29.225Z,11.79
2018-10-21T10:24:29.165Z,11.85
2018-10-21T10:25:29.181Z,11.88
2018-10-21T10:26:29.140Z,11.93
2018-10-21T10:27:29.136Z,12.01
2018-10-21T10:28:29.120Z,12.07
2018-10-21T10:29:29.110Z,12.07
2018-10-21T10:30:29.206Z,12.19
2018-10-21T10:31:29.094Z,12.16
2018-10-21T10:32:29.043Z,12.31
2018-10-21T10:33:29.062Z,12.30
2018-10-21T10:34:29.059Z,12.40
2018-10-21T10:35:29.079Z,12.48
2018-10-21T10:36:29.049Z,12.48
2018-10-21T10:37:28.979Z,12.69
2018-10-21T10:38:28.977Z,12.67
2018-10-21T10:39:29.001Z,12.69
2018-10-21T10:40:29.061Z,12.58
2018-10-21T10:41:28.989Z,12.62
2018-10-21T10:42:28.994Z,12.67
2018-10-21T10:43:28.961Z,12.70
2018-10-21T10:44:28.988Z,12.71
2018-10-21T10:45:28.956Z,12.77
2018-10-21T10:46:28.928Z,12.77
2018-10-21T10:47:28.915Z,12.85
2018-10-21T10:48:28.871Z,12.84
2018-10-21T10:49:28.892Z,12.77
2018-10-21T10:50:28.911Z,12.89
2018-10-21T10:51:28.895Z,12.89
2018-10-21T10:52:28.860Z,12.91
2018-10-21T10:53:28.841Z,12.99
2018-10-21T10:54:28.854Z,13.06
2018-10-21T10:55:28.854Z,13.14
2018-10-21T10:56:28.822Z,13.01
2018-10-21T10:57:28.809Z,13.17
2018-10-21T10:58:28.799Z,13.12
2018-10-21T10:59:28.810Z,13.21
2018-10-21T11:00:28.799Z,13.25
2018-10-21T11:01:28.758Z,13.24
2018-10-21T11:02:28.703Z,13.32
2018-10-21T11:03:28.741Z,13.36
2018-10-21T11:04:28.771Z,13.35
2018-10-21T11:05:28.717Z,13.43
2018-10-21T11:06:28.843Z,13.36
2018-10-21T11:07:28.700Z,13.47
2018-10-21T11:08:28.677Z,13.44
2018-10-21T11:09:28.655Z,13.38
2018-10-21T11:10:28.665Z,13.36
2018-10-21T11:11:28.667Z,13.44
2018-10-21T11:12:28.642Z,13.50
2018-10-21T11:13:28.630Z,13.38
2018-10-21T11:14:28.620Z,13.46
2018-10-21T11:15:28.601Z,13.51
2018-10-21T11:16:28.627Z,13.59
2018-10-21T11:17:28.601Z,13.53
2018-10-21T11:18:28.530Z,13.54
2018-10-21T11:19:28.559Z,13.57
2018-10-21T11:20:28.549Z,13.61
2018-10-21T11:21:28.569Z,13.61
2018-10-21T11:22:28.665Z,13.68
2018-10-21T11:23:28.474Z,13.66
2018-10-21T11:24:28.507Z,13.76
2018-10-21T11:25:28.505Z,13.79
2018-10-21T11:26:28.521Z,13.87
2018-10-21T11:27:28.474Z,13.86
2018-10-21T11:28:28.461Z,13.96
2018-10-21T11:29:35.977Z,13.96
2018-10-21T11:30:28.439Z,13.99
2018-10-21T11:31:28.525Z,14.06
2018-10-21T11:32:28.413Z,14.08
2018-10-21T11:33:28.412Z,14.16
2018-10-21T11:34:28.391Z,14.21
2018-10-21T11:35:28.341Z,14.27
2018-10-21T11:36:29.589Z,14.34
2018-10-21T11:37:28.545Z,14.29
2018-10-21T11:38:28.362Z,14.31
2018-10-21T11:39:28.344Z,14.29
2018-10-21T11:40:28.337Z,14.42
2018-10-21T11:41:28.565Z,14.52
2018-10-21T11:42:28.310Z,14.52
2018-10-21T11:43:28.295Z,14.48
2018-10-21T11:44:28.283Z,14.53
2018-10-21T11:45:28.292Z,14.48
2018-10-21T11:46:28.325Z,14.42
2018-10-21T11:47:28.551Z,14.46
2018-10-21T11:48:28.238Z,14.49
2018-10-21T11:49:28.225Z,14.52
2018-10-21T11:50:28.247Z,14.49
2018-10-21T11:51:28.167Z,14.49
2018-10-21T11:52:28.215Z,14.61
2018-10-21T11:53:28.212Z,14.61
2018-10-21T11:54:28.184Z,14.69
2018-10-21T11:55:28.129Z,14.63
2018-10-21T11:56:28.157Z,14.74
2018-10-21T11:57:28.142Z,14.67
2018-10-21T11:58:28.193Z,14.85
2018-10-21T11:59:28.123Z,14.80
2018-10-21T12:00:28.068Z,14.87
2018-10-21T12:01:28.104Z,14.82
2018-10-21T12:02:28.089Z,14.78
2018-10-21T12:03:28.113Z,14.87
2018-10-21T12:04:28.075Z,14.87
2018-10-21T12:05:28.072Z,14.87
2018-10-21T12:06:28.053Z,14.91
2018-10-21T12:07:28.034Z,14.94
2018-10-21T12:08:28.021Z,14.87
2018-10-21T12:09:28.049Z,14.79
2018-10-21T12:10:28.009Z,14.90
2018-10-21T12:11:28.003Z,14.91
2018-10-21T12:12:28.008Z,14.94
2018-10-21T12:13:27.986Z,14.91
2018-10-21T12:14:28.022Z,14.83
2018-10-21T12:15:27.959Z,14.85
2018-10-21T12:16:27.941Z,14.95
2018-10-21T12:17:27.933Z,14.87
2018-10-21T12:18:27.925Z,14.98
2018-10-21T12:19:27.914Z,14.97
2018-10-21T12:20:27.937Z,14.98
2018-10-21T12:21:27.916Z,15.03
2018-10-21T12:22:27.943Z,15.07
2018-10-21T12:23:27.939Z,14.98
2018-10-21T12:24:27.900Z,15.01
2018-10-21T12:25:27.878Z,14.98
2018-10-21T12:26:27.839Z,15.12
2018-10-21T12:27:27.889Z,15.15
2018-10-21T12:28:27.845Z,15.12
2018-10-21T12:29:27.814Z,15.09
2018-10-21T12:30:27.794Z,15.16
2018-10-21T12:31:27.782Z,15.16
2018-10-21T12:32:27.746Z,15.13
2018-10-21T12:33:28.024Z,15.19
2018-10-21T12:34:27.750Z,15.30
2018-10-21T12:35:27.733Z,15.25
2018-10-21T12:36:27.727Z,15.27
2018-10-21T12:37:27.712Z,15.31
2018-10-21T12:38:27.715Z,15.34
2018-10-21T12:39:27.728Z,15.37
2018-10-21T12:40:27.639Z,15.37
2018-10-21T12:41:27.676Z,15.37
2018-10-21T12:42:27.658Z,15.35
2018-10-21T12:43:27.636Z,15.38
2018-10-21T12:44:27.772Z,15.37
2018-10-21T12:45:27.742Z,15.43
2018-10-21T12:46:27.632Z,15.37
2018-10-21T12:47:27.603Z,15.41
2018-10-21T12:48:27.549Z,15.40
2018-10-21T12:49:27.616Z,15.33
2018-10-21T12:50:27.589Z,15.35
2018-10-21T12:51:27.599Z,15.28
2018-10-21T12:52:27.549Z,15.35
2018-10-21T12:53:27.645Z,15.38
2018-10-21T12:54:27.628Z,15.44
2018-10-21T12:55:27.551Z,15.43
2018-10-21T12:56:27.504Z,15.48
2018-10-21T12:57:27.500Z,15.43
2018-10-21T12:58:27.523Z,15.49
2018-10-21T12:59:27.480Z,15.48
2018-10-21T13:00:27.459Z,15.58
2018-10-21T13:01:27.474Z,15.66
2018-10-21T13:02:27.555Z,15.51
2018-10-21T13:03:27.429Z,15.58
2018-10-21T13:04:27.474Z,15.59
2018-10-21T13:05:27.407Z,15.53
2018-10-21T13:06:27.420Z,15.66
2018-10-21T13:07:27.395Z,15.53
2018-10-21T13:08:27.365Z,15.62
2018-10-21T13:09:27.362Z,15.59
2018-10-21T13:10:27.379Z,15.68
2018-10-21T13:11:27.333Z,15.66